Mariza — UBLE — position and weather

sailwx.info

Track history (hours):
 
Tides and Currents Weather Stations Pressure Air Temp Water Temp Dewpoint Dewpoint Depression Visibility Wind Speed Wind Dir Waves Ship Positions

Mariza

Last reported at 2017-Nov-24 05:30 UTC. Time now 2017-Nov-24 05:34 UTC.
Position N 44°41' E 037°49'.

Length 77 m; draft 3.7 m.

Type: Ship (hazmat cat A). MMSI: 273449410.

Date/timePositionNaut miles runAvg speedWind from/ knotsBaromVisibWave heightAir tempDewpointWater temp
2017-Nov-24 05:30N 44°41' E 037°49'0 0.0
2017-Nov-24 05:00N 44°41' E 037°49'0 0.0
2017-Nov-24 04:30N 44°41' E 037°49'0 0.1
2017-Nov-24 04:00N 44°41' E 037°49'0 0.0
2017-Nov-24 03:30N 44°41' E 037°49'0 0.7
2017-Nov-24 03:00N 44°41' E 037°49'2 3.7
2017-Nov-24 02:30N 44°39' E 037°50'3 6.2
2017-Nov-24 02:00N 44°38' E 037°46'3 6.3
2017-Nov-24 01:30N 44°36' E 037°42'3 6.1
2017-Nov-24 01:00N 44°36' E 037°38'3 6.2
2017-Nov-24 00:30N 44°37' E 037°34'3 6.2
2017-Nov-24 00:00N 44°38' E 037°30'49 6.3
2017-Nov-23 16:07N 45°06' E 036°32'1 6.2
2017-Nov-23 16:00N 45°07' E 036°32'3 6.0
2017-Nov-23 15:25N 45°10' E 036°32'1 1.3
2017-Nov-23 14:56N 45°11' E 036°32'0 0.0
2017-Nov-23 14:23N 45°11' E 036°32'0 0.0
2017-Nov-23 13:59N 45°11' E 036°32'0 0.0
2017-Nov-23 13:29N 45°11' E 036°32'0 0.0
2017-Nov-23 12:50N 45°11' E 036°32'0 0.0
2017-Nov-23 12:29N 45°11' E 036°32'0 0.0
2017-Nov-23 11:59N 45°11' E 036°32'0 0.0
2017-Nov-23 11:29N 45°11' E 036°32'0 0.0
2017-Nov-23 10:53N 45°11' E 036°32'0 0.0
2017-Nov-23 10:29N 45°11' E 036°32'0 0.0
2017-Nov-23 09:59N 45°11' E 036°32'0 0.0
2017-Nov-23 09:23N 45°11' E 036°32'0 0.0
2017-Nov-23 08:59N 45°11' E 036°32'0 0.0
2017-Nov-23 08:29N 45°11' E 036°32'0 0.0
2017-Nov-23 07:59N 45°11' E 036°32'0 0.0
2017-Nov-23 07:29N 45°11' E 036°32'0 0.0
2017-Nov-23 06:59N 45°11' E 036°32'0 0.0
2017-Nov-23 06:29N 45°11' E 036°32'0 0.0
2017-Nov-23 05:56N 45°11' E 036°32'0 0.0
2017-Nov-23 05:26N 45°11' E 036°32'0 0.0
2017-Nov-23 04:59N 45°11' E 036°32'0 0.0
2017-Nov-23 04:17N 45°11' E 036°32'0 0.0
2017-Nov-23 03:29N 45°11' E 036°32'0 0.0
2017-Nov-23 02:59N 45°11' E 036°32'  
2017-Nov-19 07:19N 45°05' E 036°38'  
2017-Nov-14 14:20N 44°36' E 037°37'2 6.0
2017-Nov-14 14:00N 44°36' E 037°40'3 5.8
2017-Nov-14 13:30N 44°37' E 037°44'3 6.3
2017-Nov-14 13:00N 44°39' E 037°48'2 4.9
2017-Nov-14 12:30N 44°41' E 037°49'1 2.7
2017-Nov-14 12:00N 44°42' E 037°48'0 0.2
2017-Nov-14 11:30N 44°42' E 037°48'0 0.0
2017-Nov-14 11:00N 44°42' E 037°48'0 0.0
2017-Nov-14 10:30N 44°42' E 037°48'0 0.0
2017-Nov-14 10:00N 44°42' E 037°48'0 0.0
2017-Nov-14 09:30N 44°42' E 037°48'0 0.1
2017-Nov-14 09:00N 44°42' E 037°48'0 0.0
2017-Nov-14 08:30N 44°42' E 037°48'0 0.0
2017-Nov-14 08:00N 44°42' E 037°48'0 0.0
2017-Nov-14 07:30N 44°42' E 037°48'0 0.0
2017-Nov-14 07:00N 44°42' E 037°48'0 0.0
2017-Nov-14 06:30N 44°42' E 037°48'0 0.0
2017-Nov-14 06:00N 44°42' E 037°48'0 0.0
2017-Nov-14 05:30N 44°42' E 037°48'  
Track history (hours):
 
Tides and Currents Weather Stations Pressure Air Temp Water Temp Dewpoint Dewpoint Depression Visibility Wind Speed Wind Dir Waves Ship Positions

Mariza

Last reported at 2017-Nov-24 05:30 UTC. Time now 2017-Nov-24 05:34 UTC.
Position N 44°41' E 037°49'.

Length 77 m; draft 3.7 m.

Type: Ship (hazmat cat A). MMSI: 273449410.

Date/timePositionNaut miles runAvg speedWind from/ knotsBaromVisibWave heightAir tempDewpointWater temp
2017-Nov-24 05:30N 44°41' E 037°49'0 0.0
2017-Nov-24 05:00N 44°41' E 037°49'0 0.0
2017-Nov-24 04:30N 44°41' E 037°49'0 0.1
2017-Nov-24 04:00N 44°41' E 037°49'0 0.0
2017-Nov-24 03:30N 44°41' E 037°49'0 0.7
2017-Nov-24 03:00N 44°41' E 037°49'2 3.7
2017-Nov-24 02:30N 44°39' E 037°50'3 6.2
2017-Nov-24 02:00N 44°38' E 037°46'3 6.3
2017-Nov-24 01:30N 44°36' E 037°42'3 6.1
2017-Nov-24 01:00N 44°36' E 037°38'3 6.2
2017-Nov-24 00:30N 44°37' E 037°34'3 6.2
2017-Nov-24 00:00N 44°38' E 037°30'49 6.3
2017-Nov-23 16:07N 45°06' E 036°32'1 6.2
2017-Nov-23 16:00N 45°07' E 036°32'3 6.0
2017-Nov-23 15:25N 45°10' E 036°32'1 1.3
2017-Nov-23 14:56N 45°11' E 036°32'0 0.0
2017-Nov-23 14:23N 45°11' E 036°32'0 0.0
2017-Nov-23 13:59N 45°11' E 036°32'0 0.0
2017-Nov-23 13:29N 45°11' E 036°32'0 0.0
2017-Nov-23 12:50N 45°11' E 036°32'0 0.0
2017-Nov-23 12:29N 45°11' E 036°32'0 0.0
2017-Nov-23 11:59N 45°11' E 036°32'0 0.0
2017-Nov-23 11:29N 45°11' E 036°32'0 0.0
2017-Nov-23 10:53N 45°11' E 036°32'0 0.0
2017-Nov-23 10:29N 45°11' E 036°32'0 0.0
2017-Nov-23 09:59N 45°11' E 036°32'0 0.0
2017-Nov-23 09:23N 45°11' E 036°32'0 0.0
2017-Nov-23 08:59N 45°11' E 036°32'0 0.0
2017-Nov-23 08:29N 45°11' E 036°32'0 0.0
2017-Nov-23 07:59N 45°11' E 036°32'0 0.0
2017-Nov-23 07:29N 45°11' E 036°32'0 0.0
2017-Nov-23 06:59N 45°11' E 036°32'0 0.0
2017-Nov-23 06:29N 45°11' E 036°32'0 0.0
2017-Nov-23 05:56N 45°11' E 036°32'0 0.0
2017-Nov-23 05:26N 45°11' E 036°32'0 0.0
2017-Nov-23 04:59N 45°11' E 036°32'0 0.0
2017-Nov-23 04:17N 45°11' E 036°32'0 0.0
2017-Nov-23 03:29N 45°11' E 036°32'0 0.0
2017-Nov-23 02:59N 45°11' E 036°32'  
2017-Nov-19 07:19N 45°05' E 036°38'  
2017-Nov-14 14:20N 44°36' E 037°37'2 6.0
2017-Nov-14 14:00N 44°36' E 037°40'3 5.8
2017-Nov-14 13:30N 44°37' E 037°44'3 6.3
2017-Nov-14 13:00N 44°39' E 037°48'2 4.9
2017-Nov-14 12:30N 44°41' E 037°49'1 2.7
2017-Nov-14 12:00N 44°42' E 037°48'0 0.2
2017-Nov-14 11:30N 44°42' E 037°48'0 0.0
2017-Nov-14 11:00N 44°42' E 037°48'0 0.0
2017-Nov-14 10:30N 44°42' E 037°48'0 0.0
2017-Nov-14 10:00N 44°42' E 037°48'0 0.0
2017-Nov-14 09:30N 44°42' E 037°48'0 0.1
2017-Nov-14 09:00N 44°42' E 037°48'0 0.0
2017-Nov-14 08:30N 44°42' E 037°48'0 0.0
2017-Nov-14 08:00N 44°42' E 037°48'0 0.0
2017-Nov-14 07:30N 44°42' E 037°48'0 0.0
2017-Nov-14 07:00N 44°42' E 037°48'0 0.0
2017-Nov-14 06:30N 44°42' E 037°48'0 0.0
2017-Nov-14 06:00N 44°42' E 037°48'0 0.0
2017-Nov-14 05:30N 44°42' E 037°48'  

Dump ship's entire track history